Wetterdaten: November 2016
Datum Temp Feuchte Luftdruck Regen Wind Richtung Sonnenschein UV Solar Windben
01.11.2016 7,5 C 93 % 1018,4 hPa 2,6 l/m 0,1 km/h N-NW 3,58 h 0,9 UV-I 155 W/m 2,4 km/h
02.11.2016 6,0 C 94 % 1016,0 hPa 2,6 l/m 2,0 km/h NW 0,50 h 0,6 UV-I 81 W/m 15,3 km/h
03.11.2016 5,3 C 96 % 1020,0 hPa 2,8 l/m 0,3 km/h W-NW 0,08 h 0,5 UV-I 57 W/m 2,0 km/h
04.11.2016 4,6 C 92 % 1010,8 hPa 0,0 l/m 2,9 km/h S 1,00 h 0,7 UV-I 96 W/m 6,0 km/h
05.11.2016 5,4 C 95 % 999,0 hPa 5,2 l/m 0,8 km/h S 0,00 h 0,5 UV-I 26 W/m 4,0 km/h
06.11.2016 4,4 C 90 % 999,0 hPa 1,6 l/m 2,3 km/h S-SW 0,00 h 0,5 UV-I 41 W/m 7,3 km/h
07.11.2016 2,8 C 95 % 1006,0 hPa 6,6 l/m 0,0 km/h S-SW 0,00 h 0,5 UV-I 43 W/m 0,0 km/h
08.11.2016 0,4 C 96 % 1008,4 hPa 1,6 l/m 0,0 km/h NW 0,00 h 0,0 UV-I 24 W/m 0,0 km/h
09.11.2016 1,2 C 96 % 1002,7 hPa 1,4 l/m 4,2 km/h S-SO 0,50 h 0,7 UV-I 69 W/m 12,5 km/h
10.11.2016 2,4 C 97 % 1006,1 hPa 5,4 l/m 0,0 km/h S-SO 0,00 h 0,5 UV-I 35 W/m 0,0 km/h
11.11.2016 -0,1 C 95 % 1020,5 hPa 0,0 l/m 1,8 km/h N-NO 0,00 h 0,0 UV-I 26 W/m 7,6 km/h
12.11.2016 -1,1 C 85 % 1025,5 hPa 0,2 l/m 5,3 km/h SO 2,67 h 0,8 UV-I 134 W/m 10,9 km/h
13.11.2016 -1,2 C 87 % 1029,1 hPa 0,0 l/m 3,1 km/h SO 1,67 h 0,7 UV-I 116 W/m 6,4 km/h
14.11.2016 1,1 C 73 % 1031,6 hPa 0,0 l/m 1,9 km/h S 4,83 h 0,8 UV-I 158 W/m 5,6 km/h
15.11.2016 5,9 C 98 % 1023,2 hPa 15,4 l/m 1,8 km/h S 0,00 h 0,5 UV-I 27 W/m 4,0 km/h
16.11.2016 9,6 C 96 % 1012,7 hPa 14,4 l/m 3,7 km/h S 0,00 h 0,6 UV-I 27 W/m 19,3 km/h
17.11.2016 9,5 C 86 % 1001,9 hPa 4,8 l/m 10,5 km/h S 0,67 h 0,6 UV-I 65 W/m 21,7 km/h
18.11.2016 5,6 C 87 % 999,8 hPa 5,6 l/m 2,9 km/h S 1,83 h 0,6 UV-I 85 W/m 6,8 km/h
19.11.2016 4,3 C 86 % 1006,7 hPa 0,0 l/m 1,7 km/h S 0,58 h 0,5 UV-I 70 W/m 7,2 km/h
20.11.2016 9,0 C 81 % 1000,3 hPa 0,0 l/m 17,4 km/h S 0,75 h 0,6 UV-I 62 W/m 32,2 km/h
21.11.2016 11,6 C 68 % 1002,4 hPa 0,0 l/m 15,5 km/h S-SO 0,00 h 0,5 UV-I 38 W/m 24,9 km/h
22.11.2016 9,5 C 87 % 1012,3 hPa 0,6 l/m 3,5 km/h S-SO 0,00 h 0,6 UV-I 63 W/m 8,4 km/h
23.11.2016 8,5 C 94 % 1018,3 hPa 0,0 l/m 0,2 km/h NW 1,08 h 0,6 UV-I 89 W/m 1,6 km/h
24.11.2016 5,3 C 92 % 1022,4 hPa 0,0 l/m 2,3 km/h N-NO 0,25 h 0,5 UV-I 53 W/m 12,9 km/h
25.11.2016 1,9 C 85 % 1022,5 hPa 0,2 l/m 1,6 km/h O 4,17 h 0,7 UV-I 128 W/m 6,4 km/h
26.11.2016 -0,4 C 95 % 1019,0 hPa 0,2 l/m 0,0 km/h S 2,17 h 0,7 UV-I 90 W/m 0,0 km/h
27.11.2016 0,9 C 97 % 1021,3 hPa 1,4 l/m 0,2 km/h W 0,08 h 0,5 UV-I 48 W/m 1,2 km/h
28.11.2016 -3,4 C 91 % 1031,9 hPa 0,2 l/m 0,1 km/h N-NO 3,83 h 0,7 UV-I 140 W/m 1,2 km/h
29.11.2016 -4,2 C 88 % 1034,4 hPa 0,2 l/m 0,0 km/h S 3,75 h 0,7 UV-I 134 W/m 0,0 km/h
30.11.2016 -0,3 C 83 % 1029,9 hPa 0,0 l/m 2,7 km/h W-NW 1,50 h 0,6 UV-I 76 W/m 12,5 km/h
Min-Datum 29.11.16 30.11.16 18.11.16 20 Tage 01.11.16 - - - - 01.11.16
Min-Zeit 07:55 12:50 06:25 - 00:00 - - - - 00:00
Minimum -7,1 C 56 % 992,3 hPa - 0,0 km/h - - - - 0,0 km/h
Max-Datum 21.11.16 29.11.16 29.11.16 15.11.16 20.11.16 - 14.11.16 01.11.16 02.11.16 20.11.16
Max-Zeit 09:55 07:50 10:00 19:05 13:20 - 14:55 11:15 12:35 13:05
Maximum 13,6 C 100 % 1036,1 hPa 15,4 l/m 42,6 km/h
S
- 4,75 h 1,4 UV-I 462 W/m 66,0 km/h
S
Durchschnitt 3,7 C 90 % 1015,1 hPa #73,0 l/m 3,0 km/h S #35:30 h 0,6 UV-I 75 W/m 8,0 km/h

Durchschnitt Minimum Temp.1,1 C
Durchschnitt Maximum Temp.6,7 C